createdAt,value
2022-10-09T00:01:08.187Z,6.32
2022-10-09T00:03:36.997Z,6.70
2022-10-09T00:06:05.513Z,5.90
2022-10-09T00:08:34.398Z,6.75
2022-10-09T00:11:08.933Z,6.03
2022-10-09T00:13:36.193Z,6.65
2022-10-09T00:16:05.498Z,7.13
2022-10-09T00:18:32.857Z,6.97
2022-10-09T00:20:59.716Z,6.80
2022-10-09T00:23:26.695Z,6.40
2022-10-09T00:25:54.754Z,6.45
2022-10-09T00:28:23.584Z,6.65
2022-10-09T00:30:51.244Z,7.35
2022-10-09T00:33:18.969Z,7.40
2022-10-09T00:35:46.139Z,7.17
2022-10-09T00:38:13.691Z,6.28
2022-10-09T00:40:41.024Z,7.00
2022-10-09T00:43:15.837Z,6.53
2022-10-09T00:45:50.291Z,6.22
2022-10-09T00:48:18.580Z,6.20
2022-10-09T00:50:49.918Z,6.40
2022-10-09T00:53:19.263Z,6.70
2022-10-09T00:55:46.361Z,6.50
2022-10-09T00:58:14.439Z,6.57
2022-10-09T01:00:41.848Z,6.07
2022-10-09T01:03:08.920Z,6.70
2022-10-09T01:06:04.973Z,6.80
2022-10-09T01:08:55.542Z,6.03
2022-10-09T01:11:44.733Z,5.88
2022-10-09T01:14:17.294Z,6.53
2022-10-09T01:17:01.971Z,6.60
2022-10-09T01:20:05.950Z,6.07
2022-10-09T01:23:01.967Z,6.00
2022-10-09T01:25:36.498Z,6.10
2022-10-09T01:28:07.613Z,6.47
2022-10-09T01:30:35.595Z,6.90
2022-10-09T01:33:03.396Z,7.25
2022-10-09T01:35:31.239Z,7.28
2022-10-09T01:37:59.849Z,7.07
2022-10-09T01:40:28.989Z,7.60
2022-10-09T01:42:56.778Z,7.78
2022-10-09T01:45:23.644Z,6.70
2022-10-09T01:47:50.597Z,6.70
2022-10-09T01:50:30.658Z,5.63
2022-10-09T01:53:02.000Z,6.27
2022-10-09T01:55:38.144Z,5.50
2022-10-09T01:58:17.057Z,5.68
2022-10-09T02:00:51.996Z,5.57
2022-10-09T02:03:19.611Z,6.20
2022-10-09T02:05:50.226Z,5.37
2022-10-09T02:08:20.224Z,6.03
2022-10-09T02:10:50.442Z,6.07
2022-10-09T02:13:18.548Z,6.00
2022-10-09T02:16:37.159Z,6.80
2022-10-09T02:19:13.621Z,5.43
2022-10-09T02:21:46.548Z,6.30
2022-10-09T02:24:18.636Z,7.07
2022-10-09T02:26:46.052Z,6.75
2022-10-09T02:29:15.539Z,5.70
2022-10-09T02:31:44.133Z,5.60
2022-10-09T02:34:20.468Z,6.10
2022-10-09T02:36:48.138Z,5.90
2022-10-09T02:39:15.155Z,6.00
2022-10-09T02:41:42.317Z,5.90
2022-10-09T02:44:09.291Z,5.80
2022-10-09T02:46:36.218Z,4.85
2022-10-09T02:49:03.309Z,5.10
2022-10-09T02:51:30.166Z,5.90
2022-10-09T02:53:56.931Z,5.65
2022-10-09T02:56:24.417Z,5.43
2022-10-09T02:58:51.350Z,5.68
2022-10-09T03:01:18.588Z,4.97
2022-10-09T03:03:46.025Z,5.57
2022-10-09T03:06:21.831Z,6.00
2022-10-09T03:08:50.776Z,5.60
2022-10-09T03:11:19.582Z,6.00
2022-10-09T03:13:47.354Z,6.50
2022-10-09T03:16:25.651Z,6.03
2022-10-09T03:18:53.465Z,7.00
2022-10-09T03:21:25.790Z,6.53
2022-10-09T03:23:53.436Z,5.82
2022-10-09T03:26:23.128Z,6.38
2022-10-09T03:28:51.916Z,6.05
2022-10-09T03:34:08.329Z,6.13
2022-10-09T03:36:35.477Z,6.30
2022-10-09T03:39:02.352Z,6.82
2022-10-09T03:41:29.157Z,6.70
2022-10-09T03:43:56.234Z,6.75
2022-10-09T03:46:23.097Z,6.93
2022-10-09T03:48:50.141Z,6.28
2022-10-09T03:51:17.535Z,6.93
2022-10-09T03:53:44.334Z,5.90
2022-10-09T03:56:11.455Z,6.40
2022-10-09T03:58:38.400Z,6.30
2022-10-09T04:01:05.282Z,5.45
2022-10-09T04:03:32.305Z,6.45
2022-10-09T04:05:59.259Z,6.47
2022-10-09T04:08:26.094Z,6.35
2022-10-09T04:10:58.332Z,5.70
2022-10-09T04:13:25.316Z,5.60
2022-10-09T04:15:53.713Z,6.07
2022-10-09T04:18:20.812Z,6.00
2022-10-09T04:20:55.347Z,7.20
2022-10-09T04:23:25.040Z,6.37
2022-10-09T04:25:56.353Z,6.55
2022-10-09T04:28:23.465Z,7.72
2022-10-09T04:30:50.545Z,6.82
2022-10-09T04:33:18.016Z,6.25
2022-10-09T04:35:46.624Z,5.87
2022-10-09T04:38:13.397Z,6.35
2022-10-09T04:40:41.180Z,5.90
2022-10-09T04:43:08.268Z,5.88
2022-10-09T04:45:39.786Z,5.85
2022-10-09T04:48:06.984Z,4.80
2022-10-09T04:50:34.135Z,6.47
2022-10-09T04:53:01.028Z,5.95
2022-10-09T04:55:27.896Z,6.13
2022-10-09T04:57:54.842Z,6.28
2022-10-09T05:00:21.695Z,5.60
2022-10-09T05:02:48.998Z,6.40
2022-10-09T05:05:16.137Z,6.38
2022-10-09T05:07:42.938Z,5.13
2022-10-09T05:10:10.058Z,4.75
2022-10-09T05:12:37.299Z,5.03
2022-10-09T05:15:04.876Z,5.63
2022-10-09T05:17:31.900Z,5.07
2022-10-09T05:19:58.951Z,4.65
2022-10-09T05:22:25.733Z,5.22
2022-10-09T05:24:52.669Z,4.97
2022-10-09T05:27:20.032Z,4.43
2022-10-09T05:29:46.986Z,5.50
2022-10-09T05:32:13.990Z,5.43
2022-10-09T05:34:40.821Z,5.70
2022-10-09T05:37:07.619Z,6.00
2022-10-09T05:39:34.862Z,6.15
2022-10-09T05:42:02.275Z,7.05
2022-10-09T05:44:29.052Z,7.50
2022-10-09T05:46:56.305Z,8.88
2022-10-09T05:49:23.075Z,8.27
2022-10-09T05:51:49.859Z,8.02
2022-10-09T05:54:18.359Z,7.70
2022-10-09T05:56:45.500Z,7.45
2022-10-09T05:59:17.470Z,7.80
2022-10-09T06:01:46.754Z,7.40
2022-10-09T06:04:18.497Z,7.20
2022-10-09T06:06:46.479Z,7.38
2022-10-09T06:09:13.732Z,7.72
2022-10-09T06:11:41.788Z,8.82
2022-10-09T06:14:11.056Z,7.77
2022-10-09T06:16:40.936Z,7.50
2022-10-09T06:19:08.721Z,9.02
2022-10-09T06:21:35.732Z,7.43
2022-10-09T06:24:04.995Z,6.88
2022-10-09T06:26:32.920Z,7.27
2022-10-09T06:29:01.228Z,7.50
2022-10-09T06:31:31.108Z,7.97
2022-10-09T06:34:02.220Z,8.45
2022-10-09T06:36:32.708Z,6.95
2022-10-09T06:39:01.825Z,6.23
2022-10-09T06:41:30.063Z,6.40
2022-10-09T06:44:02.262Z,6.28
2022-10-09T06:46:34.331Z,8.15
2022-10-09T06:49:02.073Z,7.10
2022-10-09T06:51:29.998Z,7.70
2022-10-09T06:53:58.798Z,7.53
2022-10-09T06:56:27.554Z,7.15
2022-10-09T06:58:55.023Z,7.40
2022-10-09T07:01:25.240Z,5.97
2022-10-09T07:03:57.975Z,5.90
2022-10-09T07:06:27.976Z,5.82
2022-10-09T07:09:00.782Z,6.45
2022-10-09T07:11:39.223Z,6.35
2022-10-09T07:14:09.334Z,5.80
2022-10-09T07:16:42.253Z,5.80
2022-10-09T07:19:09.999Z,5.72
2022-10-09T07:21:38.505Z,5.57
2022-10-09T07:24:06.494Z,5.50
2022-10-09T07:26:36.863Z,7.88
2022-10-09T07:29:05.856Z,6.13
2022-10-09T07:31:32.737Z,5.43
2022-10-09T07:34:00.218Z,5.22
2022-10-09T07:36:27.821Z,5.45
2022-10-09T07:38:57.191Z,5.90
2022-10-09T07:41:26.498Z,6.00
2022-10-09T07:43:53.374Z,5.95
2022-10-09T07:46:22.145Z,6.50
2022-10-09T07:48:50.236Z,6.70
2022-10-09T07:51:25.793Z,6.63
2022-10-09T07:53:53.714Z,6.77
2022-10-09T07:56:22.855Z,7.13
2022-10-09T07:58:51.358Z,6.80
2022-10-09T08:01:20.583Z,5.93
2022-10-09T08:03:48.174Z,6.70
2022-10-09T08:06:15.776Z,7.53
2022-10-09T08:08:43.172Z,6.57
2022-10-09T08:11:15.513Z,6.63
2022-10-09T08:13:43.673Z,7.25
2022-10-09T08:16:10.979Z,6.35
2022-10-09T08:18:38.058Z,6.70
2022-10-09T08:21:07.796Z,6.95
2022-10-09T08:23:35.540Z,7.15
2022-10-09T08:26:03.035Z,5.28
2022-10-09T08:28:30.271Z,5.82
2022-10-09T08:30:57.446Z,6.53
2022-10-09T08:33:24.308Z,5.78
2022-10-09T08:35:51.952Z,6.03
2022-10-09T08:38:44.979Z,5.28
2022-10-09T08:41:33.700Z,5.70
2022-10-09T08:44:23.619Z,5.87
2022-10-09T08:46:53.723Z,5.70
2022-10-09T08:49:48.954Z,4.63
2022-10-09T08:52:37.413Z,4.78
2022-10-09T08:55:26.265Z,4.55
2022-10-09T08:57:56.511Z,3.90
2022-10-09T09:00:27.281Z,4.03
2022-10-09T09:03:06.013Z,4.85
2022-10-09T09:05:58.270Z,3.95
2022-10-09T09:08:33.132Z,4.68
2022-10-09T09:11:23.301Z,4.53
2022-10-09T09:13:57.736Z,4.00
2022-10-09T09:16:46.035Z,3.80
2022-10-09T09:19:33.087Z,3.85
2022-10-09T09:22:00.389Z,4.28
2022-10-09T09:24:47.817Z,4.30
2022-10-09T09:27:18.018Z,3.88
2022-10-09T09:29:54.738Z,4.10
2022-10-09T09:32:24.248Z,3.72
2022-10-09T09:34:52.720Z,4.30
2022-10-09T09:37:19.702Z,4.03
2022-10-09T09:42:33.774Z,3.38
2022-10-09T09:45:07.870Z,3.78
2022-10-09T09:47:41.851Z,3.80
2022-10-09T09:50:23.379Z,3.60
2022-10-09T09:52:56.653Z,5.22
2022-10-09T09:55:26.895Z,4.30
2022-10-09T09:58:03.509Z,4.63
2022-10-09T10:00:31.447Z,3.30
2022-10-09T10:03:12.595Z,3.13
2022-10-09T10:05:42.907Z,3.85
2022-10-09T10:08:14.712Z,3.40
2022-10-09T10:10:46.828Z,3.47
2022-10-09T10:13:23.232Z,3.63
2022-10-09T10:15:54.288Z,3.30
2022-10-09T10:18:23.427Z,2.72
2022-10-09T10:20:54.657Z,3.10
2022-10-09T10:23:35.913Z,3.40
2022-10-09T10:26:35.787Z,3.25
2022-10-09T10:29:31.553Z,2.67
2022-10-09T10:32:35.769Z,2.63
2022-10-09T10:35:13.095Z,3.08
2022-10-09T10:38:17.665Z,5.97
2022-10-09T10:40:54.016Z,2.83
2022-10-09T10:43:46.691Z,3.13
2022-10-09T10:46:22.691Z,2.97
2022-10-09T10:48:50.341Z,3.03
2022-10-09T10:51:43.516Z,3.08
2022-10-09T10:54:13.074Z,3.20
2022-10-09T10:56:56.026Z,3.10
2022-10-09T10:59:35.192Z,3.08
2022-10-09T11:02:27.048Z,2.80
2022-10-09T11:05:26.067Z,3.00
2022-10-09T11:08:07.417Z,2.78
2022-10-09T11:10:44.512Z,2.60
2022-10-09T11:13:32.541Z,2.95
2022-10-09T11:16:08.467Z,3.50
2022-10-09T11:19:02.698Z,3.45
2022-10-09T11:21:44.671Z,3.17
2022-10-09T11:24:29.837Z,3.23
2022-10-09T11:27:03.346Z,2.83
2022-10-09T11:29:35.832Z,3.35
2022-10-09T11:32:11.984Z,2.50
2022-10-09T11:34:47.084Z,3.55
2022-10-09T11:37:25.537Z,3.10
2022-10-09T11:39:52.868Z,2.72
2022-10-09T11:42:25.691Z,3.30
2022-10-09T11:48:05.989Z,3.22
2022-10-09T11:51:06.792Z,3.07
2022-10-09T11:53:35.380Z,3.47
2022-10-09T11:56:07.692Z,3.30
2022-10-09T11:58:36.136Z,4.05
2022-10-09T12:01:22.386Z,2.85
2022-10-09T12:04:00.934Z,3.07
2022-10-09T12:06:29.268Z,3.28
2022-10-09T12:09:03.779Z,3.33
2022-10-09T12:11:32.519Z,3.70
2022-10-09T12:14:02.258Z,3.30
2022-10-09T12:16:36.678Z,3.20
2022-10-09T12:19:20.959Z,3.30
2022-10-09T12:21:56.721Z,3.63
2022-10-09T12:24:26.302Z,3.50
2022-10-09T12:26:56.385Z,3.70
2022-10-09T12:29:32.309Z,3.10
2022-10-09T12:32:05.379Z,2.95
2022-10-09T12:34:42.290Z,4.05
2022-10-09T12:37:12.998Z,3.50
2022-10-09T12:39:40.801Z,3.05
2022-10-09T12:42:16.724Z,3.67
2022-10-09T12:44:45.311Z,3.42
2022-10-09T12:47:30.707Z,3.58
2022-10-09T12:49:58.720Z,3.25
2022-10-09T12:52:25.741Z,3.78
2022-10-09T12:54:53.140Z,3.30
2022-10-09T12:57:24.100Z,3.35
2022-10-09T12:59:54.936Z,3.80
2022-10-09T13:02:22.617Z,3.70
2022-10-09T13:04:59.742Z,4.15
2022-10-09T13:07:29.257Z,3.53
2022-10-09T13:10:02.494Z,3.65
2022-10-09T13:12:30.898Z,3.90
2022-10-09T13:15:34.154Z,3.35
2022-10-09T13:18:12.376Z,3.85
2022-10-09T13:20:42.260Z,4.00
2022-10-09T13:23:27.821Z,3.70
2022-10-09T13:25:54.957Z,3.97
2022-10-09T13:28:22.209Z,3.80
2022-10-09T13:30:49.884Z,3.70
2022-10-09T13:33:17.435Z,3.77
2022-10-09T13:35:44.621Z,4.22
2022-10-09T13:38:18.893Z,4.13
2022-10-09T13:40:46.346Z,3.90
2022-10-09T13:43:21.796Z,4.30
2022-10-09T13:45:48.970Z,3.83
2022-10-09T13:48:15.817Z,3.88
2022-10-09T13:50:42.713Z,4.50
2022-10-09T13:53:09.851Z,4.20
2022-10-09T13:55:36.747Z,3.90
2022-10-09T13:58:04.182Z,4.40
2022-10-09T14:00:31.262Z,3.80
2022-10-09T14:02:58.306Z,4.25
2022-10-09T14:05:25.181Z,4.93
2022-10-09T14:07:52.349Z,5.00
2022-10-09T14:10:23.592Z,3.90
2022-10-09T14:12:51.914Z,4.75
2022-10-09T14:15:19.137Z,4.10
2022-10-09T14:17:46.338Z,4.13
2022-10-09T14:20:13.819Z,5.07
2022-10-09T14:22:50.438Z,5.13
2022-10-09T14:25:17.690Z,5.03
2022-10-09T14:27:44.719Z,5.47
2022-10-09T14:30:15.097Z,5.63
2022-10-09T14:32:42.059Z,5.60
2022-10-09T14:35:09.176Z,5.80
2022-10-09T14:37:41.697Z,5.28
2022-10-09T14:40:10.726Z,5.85
2022-10-09T14:42:38.388Z,5.53
2022-10-09T14:45:06.017Z,5.80
2022-10-09T14:47:32.970Z,6.70
2022-10-09T14:49:59.837Z,6.45
2022-10-09T14:52:26.673Z,7.30
2022-10-09T14:54:53.648Z,7.32
2022-10-09T14:57:20.693Z,7.57
2022-10-09T14:59:47.558Z,7.63
2022-10-09T15:02:18.258Z,7.50
2022-10-09T15:04:45.753Z,7.68
2022-10-09T15:07:12.590Z,8.43
2022-10-09T15:09:39.557Z,7.50
2022-10-09T15:12:06.713Z,8.00
2022-10-09T15:14:34.295Z,8.32
2022-10-09T15:17:01.327Z,8.30
2022-10-09T15:19:28.236Z,8.52
2022-10-09T15:21:54.938Z,8.85
2022-10-09T15:24:21.834Z,8.67
2022-10-09T15:26:49.049Z,8.32
2022-10-09T15:29:15.912Z,9.15
2022-10-09T15:31:42.870Z,8.43
2022-10-09T15:34:16.624Z,9.05
2022-10-09T15:36:43.892Z,9.27
2022-10-09T15:39:11.019Z,8.25
2022-10-09T15:41:40.253Z,9.50
2022-10-09T15:44:18.317Z,8.40
2022-10-09T15:46:46.905Z,9.15
2022-10-09T15:49:13.970Z,8.97
2022-10-09T15:51:41.337Z,9.35
2022-10-09T15:54:08.176Z,9.15
2022-10-09T15:56:39.632Z,9.60
2022-10-09T15:59:08.265Z,9.52
2022-10-09T16:01:35.148Z,10.10
2022-10-09T16:04:02.137Z,10.20
2022-10-09T16:06:29.253Z,10.55
2022-10-09T16:08:58.093Z,11.07
2022-10-09T16:11:26.445Z,11.70
2022-10-09T16:13:54.868Z,11.60
2022-10-09T16:16:24.632Z,11.65
2022-10-09T16:18:53.988Z,11.32
2022-10-09T16:21:26.750Z,11.10
2022-10-09T16:23:58.868Z,10.88
2022-10-09T16:26:33.305Z,10.80
2022-10-09T16:29:00.858Z,13.30
2022-10-09T16:31:31.292Z,10.25
2022-10-09T16:33:58.541Z,10.32
2022-10-09T16:36:25.710Z,10.52
2022-10-09T16:38:53.182Z,10.87
2022-10-09T16:41:21.978Z,11.82
2022-10-09T16:43:52.211Z,16.92
2022-10-09T16:46:21.780Z,17.75
2022-10-09T16:48:50.389Z,12.90
2022-10-09T16:51:20.779Z,11.00
2022-10-09T16:53:53.021Z,11.73
2022-10-09T16:56:23.986Z,11.45
2022-10-09T16:58:56.189Z,11.38
2022-10-09T17:01:27.674Z,12.80
2022-10-09T17:03:56.775Z,14.20
2022-10-09T17:06:25.700Z,15.23
2022-10-09T17:08:55.528Z,11.70
2022-10-09T17:11:24.058Z,12.02
2022-10-09T17:13:52.541Z,11.30
2022-10-09T17:16:22.389Z,11.33
2022-10-09T17:18:50.194Z,11.05
2022-10-09T17:21:18.334Z,12.02
2022-10-09T17:23:45.837Z,13.82
2022-10-09T17:26:18.427Z,16.60
2022-10-09T17:28:47.154Z,11.93
2022-10-09T17:31:17.736Z,13.52
2022-10-09T17:33:46.065Z,17.48
2022-10-09T17:36:22.064Z,21.75
2022-10-09T17:38:50.363Z,26.13
2022-10-09T17:41:19.955Z,25.60
2022-10-09T17:43:46.915Z,21.17
2022-10-09T17:46:15.222Z,21.70
2022-10-09T17:48:42.217Z,22.42
2022-10-09T17:51:13.344Z,24.42
2022-10-09T17:53:40.227Z,24.00
2022-10-09T17:56:07.076Z,23.30
2022-10-09T17:58:34.096Z,28.40
2022-10-09T18:01:08.672Z,73.82
2022-10-09T18:03:36.096Z,26.17
2022-10-09T18:06:10.554Z,17.07
2022-10-09T18:08:38.712Z,16.98
2022-10-09T18:11:08.819Z,16.33
2022-10-09T18:13:37.744Z,18.60
2022-10-09T18:16:06.499Z,19.63
2022-10-09T18:18:33.531Z,23.10
2022-10-09T18:21:05.778Z,25.75
2022-10-09T18:23:33.445Z,19.60
2022-10-09T18:26:01.603Z,31.52
2022-10-09T18:28:28.909Z,23.67
2022-10-09T18:30:56.052Z,19.53
2022-10-09T18:33:23.273Z,24.35
2022-10-09T18:35:50.675Z,18.77
2022-10-09T18:38:23.133Z,22.30
2022-10-09T18:40:50.054Z,21.30
2022-10-09T18:43:17.355Z,19.03
2022-10-09T18:45:47.659Z,19.27
2022-10-09T18:48:18.626Z,28.73
2022-10-09T18:50:48.512Z,35.63
2022-10-09T18:53:15.695Z,47.83
2022-10-09T18:55:43.791Z,20.73
2022-10-09T18:58:12.667Z,20.65
2022-10-09T19:00:39.923Z,22.80
2022-10-09T19:03:06.957Z,19.10
2022-10-09T19:05:34.219Z,21.63
2022-10-09T19:08:01.000Z,19.53
2022-10-09T19:10:27.950Z,20.27
2022-10-09T19:12:54.853Z,19.58
2022-10-09T19:15:21.904Z,17.90
2022-10-09T19:17:49.305Z,20.15
2022-10-09T19:20:16.859Z,18.20
2022-10-09T19:22:43.777Z,15.90
2022-10-09T19:25:10.833Z,16.70
2022-10-09T19:27:37.749Z,16.20
2022-10-09T19:30:05.554Z,15.43
2022-10-09T19:32:32.977Z,15.87
2022-10-09T19:35:00.278Z,15.93
2022-10-09T19:37:29.724Z,16.45
2022-10-09T19:39:57.276Z,36.88
2022-10-09T19:42:24.215Z,22.80
2022-10-09T19:44:51.057Z,20.77
2022-10-09T19:47:18.099Z,18.60
2022-10-09T19:49:45.387Z,17.40
2022-10-09T19:52:12.254Z,15.48
2022-10-09T19:54:39.456Z,14.95
2022-10-09T19:57:06.511Z,14.60
2022-10-09T19:59:33.336Z,15.05
2022-10-09T20:02:00.411Z,13.82
2022-10-09T20:04:27.340Z,15.40
2022-10-09T20:06:54.107Z,15.75
2022-10-09T20:09:21.132Z,16.50
2022-10-09T20:11:48.252Z,14.50
2022-10-09T20:14:15.050Z,15.30
2022-10-09T20:16:42.234Z,15.82
2022-10-09T20:19:09.150Z,15.70
2022-10-09T20:21:36.132Z,14.53
2022-10-09T20:24:03.063Z,14.63
2022-10-09T20:26:30.158Z,13.63
2022-10-09T20:28:56.959Z,13.38
2022-10-09T20:31:26.105Z,13.60
2022-10-09T20:33:54.375Z,12.80
2022-10-09T20:36:30.335Z,12.93
2022-10-09T20:39:02.556Z,14.18
2022-10-09T20:41:33.298Z,16.98
2022-10-09T20:44:01.391Z,10.65
2022-10-09T20:46:31.706Z,9.70
2022-10-09T20:48:59.241Z,11.82
2022-10-09T20:51:26.463Z,13.90
2022-10-09T20:53:55.362Z,15.38
2022-10-09T20:56:23.372Z,9.60
2022-10-09T20:58:50.984Z,9.93
2022-10-09T21:01:18.314Z,10.02
2022-10-09T21:03:45.181Z,10.48
2022-10-09T21:06:15.137Z,9.35
2022-10-09T21:08:42.520Z,9.65
2022-10-09T21:11:12.196Z,10.00
2022-10-09T21:13:40.148Z,9.85
2022-10-09T21:16:10.140Z,11.27
2022-10-09T21:18:38.344Z,10.40
2022-10-09T21:21:08.861Z,10.88
2022-10-09T21:23:36.069Z,11.33
2022-10-09T21:26:03.627Z,12.65
2022-10-09T21:28:30.902Z,13.38
2022-10-09T21:30:57.821Z,13.25
2022-10-09T21:33:24.632Z,14.70
2022-10-09T21:35:52.254Z,13.80
2022-10-09T21:38:21.979Z,15.35
2022-10-09T21:40:49.249Z,16.13
2022-10-09T21:43:16.549Z,15.90
2022-10-09T21:45:44.055Z,16.40
2022-10-09T21:48:15.099Z,16.77
2022-10-09T21:50:42.200Z,16.60
2022-10-09T21:53:09.187Z,14.98
2022-10-09T21:55:37.854Z,16.58
2022-10-09T21:58:06.015Z,15.90
2022-10-09T22:00:33.534Z,15.27
2022-10-09T22:03:00.388Z,14.55
2022-10-09T22:05:27.290Z,15.40
2022-10-09T22:07:54.209Z,13.48
2022-10-09T22:10:21.112Z,10.60
2022-10-09T22:12:48.302Z,9.27
2022-10-09T22:15:15.582Z,8.27
2022-10-09T22:17:42.457Z,6.25
2022-10-09T22:20:09.614Z,6.18
2022-10-09T22:22:36.786Z,5.72
2022-10-09T22:25:04.058Z,5.47
2022-10-09T22:27:31.060Z,5.75
2022-10-09T22:29:58.114Z,5.63
2022-10-09T22:32:24.928Z,5.60
2022-10-09T22:34:52.056Z,5.90
2022-10-09T22:37:19.235Z,6.60
2022-10-09T22:39:46.138Z,6.18
2022-10-09T22:42:12.969Z,7.05
2022-10-09T22:44:40.054Z,9.48
2022-10-09T22:47:06.855Z,9.93
2022-10-09T22:49:33.855Z,8.77
2022-10-09T22:52:01.064Z,8.45
2022-10-09T22:54:27.897Z,8.13
2022-10-09T22:56:54.828Z,9.45
2022-10-09T22:59:21.899Z,10.27
2022-10-09T23:01:54.643Z,9.50
2022-10-09T23:04:22.989Z,9.63
2022-10-09T23:06:55.418Z,9.30
2022-10-09T23:09:24.053Z,8.02
2022-10-09T23:11:51.049Z,8.63
2022-10-09T23:14:18.316Z,8.77
2022-10-09T23:16:45.537Z,7.85
2022-10-09T23:19:12.861Z,8.82
2022-10-09T23:21:41.732Z,8.32
2022-10-09T23:24:10.822Z,7.97
2022-10-09T23:26:39.789Z,7.67
2022-10-09T23:29:09.730Z,7.85
2022-10-09T23:31:37.165Z,7.78
2022-10-09T23:34:05.336Z,7.32
2022-10-09T23:36:32.378Z,8.10
2022-10-09T23:39:03.496Z,8.40
2022-10-09T23:41:30.665Z,9.02
2022-10-09T23:43:57.550Z,7.80
2022-10-09T23:46:27.383Z,7.97
2022-10-09T23:48:54.657Z,8.65
2022-10-09T23:51:23.018Z,7.33
2022-10-09T23:53:50.493Z,7.68
2022-10-09T23:56:26.034Z,9.43
2022-10-09T23:58:53.798Z,10.23
